Time;durP1;ratioP1;P1;durP2;ratioP2;P2;SDS_P1;SDS_P2;PMS_P1;PMS_P2;Temp;Humidity;BMP_temperature;BMP_pressure;BME280_temperature;BME280_humidity;BME280_pressure;Samples;Min_cycle;Max_cycle;Signal;HPM_P1;HPM_P2
2022/10/10 00:02:25;;;;;;;7.15;5.43;;;;;;;9.51;81.41;101487.56;5023707;28;20082;-79
2022/10/10 00:04:51;;;;;;;7.75;5.50;;;;;;;9.58;81.19;101487.75;5032109;28;20021;-79
2022/10/10 00:07:18;;;;;;;8.13;5.97;;;;;;;9.48;81.20;101485.47;5046260;28;20039;-80
2022/10/10 00:09:44;;;;;;;8.93;5.55;;;;;;;9.33;81.70;101484.25;5044550;28;20633;-80
2022/10/10 00:12:10;;;;;;;9.00;5.65;;;;;;;9.47;81.88;101481.88;5046421;28;20480;-80
2022/10/10 00:14:36;;;;;;;10.70;6.60;;;;;;;9.40;81.09;101469.66;5032214;28;20041;-80
2022/10/10 00:17:01;;;;;;;11.77;5.93;;;;;;;9.18;82.21;101471.03;5031216;28;20044;-80
2022/10/10 00:19:26;;;;;;;7.45;5.90;;;;;;;9.16;82.83;101469.38;5048669;28;20507;-80
2022/10/10 00:21:52;;;;;;;6.55;5.57;;;;;;;9.18;82.26;101457.06;5038027;28;20045;-79
2022/10/10 00:24:17;;;;;;;8.20;6.13;;;;;;;9.34;82.24;101458.75;5030132;28;20142;-79
2022/10/10 00:26:42;;;;;;;10.55;6.85;;;;;;;9.26;81.80;101467.28;5040598;28;20579;-80
2022/10/10 00:29:08;;;;;;;8.05;5.80;;;;;;;9.34;81.53;101467.13;5041144;28;20036;-80
2022/10/10 00:31:33;;;;;;;7.10;6.35;;;;;;;9.33;80.90;101461.91;5043356;28;20025;-79
2022/10/10 00:33:58;;;;;;;8.90;6.00;;;;;;;9.32;81.78;101457.47;5042259;28;20116;-79
2022/10/10 00:36:24;;;;;;;8.48;5.97;;;;;;;9.30;81.46;101454.25;5042255;28;20037;-80
2022/10/10 00:38:49;;;;;;;10.88;6.88;;;;;;;9.05;82.65;101454.31;5024314;28;20063;-80
2022/10/10 00:41:14;;;;;;;11.00;6.53;;;;;;;9.27;81.58;101444.56;5025334;28;20035;-80
2022/10/10 00:43:40;;;;;;;8.30;5.05;;;;;;;9.25;81.08;101440.50;5030893;28;20028;-79
2022/10/10 00:46:05;;;;;;;6.97;5.47;;;;;;;9.34;81.44;101442.00;5041444;28;20048;-79
2022/10/10 00:48:44;;;;;;;10.98;6.47;;;;;;;9.30;80.88;101443.06;5032047;28;20025;-79
2022/10/10 00:51:13;;;;;;;6.97;5.25;;;;;;;9.19;81.84;101448.31;5027882;28;20033;-80
2022/10/10 00:53:47;;;;;;;9.93;5.65;;;;;;;9.18;81.98;101443.09;5036237;28;20044;-80
2022/10/10 00:56:16;;;;;;;9.85;5.82;;;;;;;9.22;82.39;101446.81;5027480;28;20040;-80
2022/10/10 00:58:45;;;;;;;9.30;6.18;;;;;;;9.08;82.37;101436.81;5040431;28;20477;-80
2022/10/10 01:01:11;;;;;;;7.78;5.55;;;;;;;9.10;81.83;101437.28;5024709;28;20031;-79
2022/10/10 01:03:36;;;;;;;9.35;5.63;;;;;;;9.09;82.05;101427.31;5042458;28;20029;-79
2022/10/10 01:06:03;;;;;;;10.32;6.07;;;;;;;9.02;82.72;101420.69;5027106;28;20119;-79
2022/10/10 01:08:28;;;;;;;8.15;5.65;;;;;;;8.82;83.36;101428.09;5034168;28;20033;-79
2022/10/10 01:10:57;;;;;;;9.57;6.00;;;;;;;8.97;83.20;101424.53;5043196;28;21559;-80
2022/10/10 01:13:33;;;;;;;10.73;6.10;;;;;;;8.99;83.14;101418.63;5038272;28;20040;-79
2022/10/10 01:16:17;;;;;;;8.57;5.75;;;;;;;8.92;83.46;101425.59;5030910;28;20042;-80
2022/10/10 01:19:12;;;;;;;7.88;5.85;;;;;;;9.01;82.45;101419.88;5043062;28;20035;-79
2022/10/10 01:22:15;;;;;;;9.95;6.40;;;;;;;9.18;82.03;101424.34;5041098;28;20064;-79
2022/10/10 01:24:51;;;;;;;8.10;5.93;;;;;;;8.98;82.43;101423.38;5032160;28;20029;-80
2022/10/10 01:27:33;;;;;;;7.63;5.63;;;;;;;8.99;83.27;101427.00;5042874;28;20070;-79
2022/10/10 01:30:07;;;;;;;8.65;5.80;;;;;;;8.95;82.77;101418.50;5037379;28;20035;-80
2022/10/10 01:32:50;;;;;;;8.45;6.60;;;;;;;9.03;83.15;101420.34;5036410;28;20483;-80
2022/10/10 01:35:35;;;;;;;9.35;6.10;;;;;;;8.97;83.00;101412.56;5017871;28;20481;-80
2022/10/10 01:38:18;;;;;;;8.82;5.53;;;;;;;9.08;82.27;101408.91;5032558;28;20123;-79
2022/10/10 01:41:02;;;;;;;7.97;6.32;;;;;;;9.01;82.26;101411.50;5033029;28;20082;-80
2022/10/10 01:43:29;;;;;;;9.43;5.80;;;;;;;8.88;82.82;101410.72;5036819;28;20504;-80
2022/10/10 01:45:55;;;;;;;8.05;5.82;;;;;;;8.82;83.00;101400.97;5027532;28;20028;-80
2022/10/10 01:48:27;;;;;;;9.68;5.80;;;;;;;8.77;83.68;101397.59;5042862;28;20115;-79
2022/10/10 01:51:05;;;;;;;;;;;;;;;8.91;83.46;101398.84;5048433;28;20029;-80
2022/10/10 01:53:51;;;;;;;9.13;6.00;;;;;;;8.87;83.57;101397.13;5053791;28;19995;-80
2022/10/10 01:56:34;;;;;;;9.63;5.60;;;;;;;8.89;83.20;101394.78;5043002;28;20044;-79
2022/10/10 01:59:22;;;;;;;10.95;6.60;;;;;;;8.85;83.24;101388.28;5038966;28;20480;-80
2022/10/10 02:02:01;;;;;;;9.25;6.43;;;;;;;8.93;83.08;101379.75;5044275;28;20405;-80
2022/10/10 02:04:48;;;;;;;8.52;6.13;;;;;;;8.98;83.13;101381.50;5049982;28;20029;-79
2022/10/10 02:07:25;;;;;;;8.85;6.18;;;;;;;9.02;82.39;101381.59;5041284;28;20029;-80
2022/10/10 02:09:52;;;;;;;11.10;6.93;;;;;;;8.83;82.69;101376.66;5049836;28;20488;-80
2022/10/10 02:12:19;;;;;;;11.65;6.53;;;;;;;9.09;81.90;101376.22;5049273;28;20043;-79
2022/10/10 02:14:53;;;;;;;7.93;5.95;;;;;;;9.02;82.75;101371.22;5031287;28;20029;-80
2022/10/10 02:17:20;;;;;;;9.02;6.13;;;;;;;8.90;82.69;101360.13;5041909;28;20021;-80
2022/10/10 02:19:51;;;;;;;11.07;6.35;;;;;;;8.91;83.18;101358.94;5037431;28;20028;-79
2022/10/10 02:22:20;;;;;;;8.93;6.10;;;;;;;8.91;83.18;101358.94;5047386;28;20044;-80
2022/10/10 02:24:45;;;;;;;11.52;6.90;;;;;;;8.91;82.93;101359.75;5040266;28;20086;-80
2022/10/10 02:27:42;;;;;;;11.88;6.97;;;;;;;8.87;82.66;101358.03;5046387;28;20447;-80
2022/10/10 02:30:08;;;;;;;11.18;6.50;;;;;;;8.90;82.81;101351.75;5032136;28;20060;-80
2022/10/10 02:32:45;;;;;;;9.93;5.90;;;;;;;8.73;83.14;101341.69;5030751;28;20033;-80
2022/10/10 02:35:18;;;;;;;13.60;6.80;;;;;;;8.71;83.15;101346.81;5039931;28;20456;-79
2022/10/10 02:37:45;;;;;;;;;;;;;;;8.47;84.41;101348.50;5048973;28;21327;-80
2022/10/10 02:40:16;;;;;;;10.77;6.28;;;;;;;8.74;82.81;101341.31;5030721;28;20679;-80
2022/10/10 02:42:43;;;;;;;13.35;6.28;;;;;;;8.61;83.99;101334.16;5049054;28;20480;-80
2022/10/10 02:45:08;;;;;;;9.27;6.45;;;;;;;8.80;83.69;101336.31;5045995;28;20145;-79
2022/10/10 02:47:33;;;;;;;8.70;5.72;;;;;;;8.75;83.29;101334.59;5044601;28;20113;-80
2022/10/10 02:49:59;;;;;;;8.15;5.75;;;;;;;8.78;83.67;101337.84;5030347;28;20024;-80
2022/10/10 02:52:24;;;;;;;9.85;5.50;;;;;;;8.84;83.37;101336.44;5046263;28;20393;-80
2022/10/10 02:54:49;;;;;;;10.15;5.70;;;;;;;8.70;83.72;101332.03;5027837;28;20422;-80
2022/10/10 02:57:15;;;;;;;10.27;6.25;;;;;;;8.68;83.90;101326.00;5041911;28;20143;-80
2022/10/10 02:59:40;;;;;;;12.30;6.07;;;;;;;8.64;84.32;101332.63;5045270;28;20228;-80
2022/10/10 03:02:06;;;;;;;11.05;6.68;;;;;;;8.64;83.93;101327.06;5025707;28;20507;-80
2022/10/10 03:04:32;;;;;;;12.45;6.57;;;;;;;8.58;84.65;101315.34;5044674;28;20021;-79
2022/10/10 03:06:58;;;;;;;8.35;6.45;;;;;;;8.61;85.08;101323.00;5030730;28;20262;-80
2022/10/10 03:09:23;;;;;;;10.20;6.55;;;;;;;8.67;84.17;101318.81;5036730;28;20404;-80
2022/10/10 03:11:48;;;;;;;12.55;6.65;;;;;;;8.71;83.97;101316.94;5051098;28;20037;-80
2022/10/10 03:14:14;;;;;;;11.95;6.50;;;;;;;8.65;84.07;101309.97;5036438;28;20511;-79
2022/10/10 03:16:39;;;;;;;12.70;6.45;;;;;;;8.75;83.66;101317.84;5042165;28;20033;-80
2022/10/10 03:19:07;;;;;;;9.90;6.45;;;;;;;8.47;85.09;101317.78;5040424;28;20033;-80
2022/10/10 03:21:33;;;;;;;9.13;6.85;;;;;;;8.35;85.87;101310.25;5048455;28;20469;-80
2022/10/10 03:23:58;;;;;;;9.50;6.63;;;;;;;8.73;83.89;101302.63;5044525;28;20534;-79
2022/10/10 03:26:23;;;;;;;10.68;6.68;;;;;;;8.61;85.17;101313.81;5038503;28;20049;-79
2022/10/10 03:28:49;;;;;;;9.32;5.88;;;;;;;8.68;84.39;101317.63;5044472;28;20108;-79
2022/10/10 03:31:14;;;;;;;12.55;7.32;;;;;;;8.61;84.43;101317.41;5045507;28;20021;-80
2022/10/10 03:33:39;;;;;;;8.80;6.00;;;;;;;8.77;84.30;101316.66;5038375;28;20056;-79
2022/10/10 03:36:05;;;;;;;9.43;7.18;;;;;;;8.57;84.91;101315.69;5054751;28;20411;-79
2022/10/10 03:38:30;;;;;;;8.65;6.25;;;;;;;8.52;85.56;101314.78;5030101;28;20067;-79
2022/10/10 03:40:56;;;;;;;11.07;6.40;;;;;;;8.44;85.76;101303.75;5036286;28;20120;-79
2022/10/10 03:43:21;;;;;;;12.30;7.88;;;;;;;8.53;85.96;101310.81;5050709;28;20062;-79
2022/10/10 03:45:46;;;;;;;9.77;6.47;;;;;;;8.48;85.54;101301.91;5045797;28;20320;-79
2022/10/10 03:48:12;;;;;;;9.05;5.88;;;;;;;8.64;85.37;101313.91;5034125;28;22106;-79
2022/10/10 03:50:38;;;;;;;11.40;7.20;;;;;;;8.40;86.59;101300.03;5047048;28;20500;-80
2022/10/10 03:53:04;;;;;;;11.32;6.93;;;;;;;8.69;84.92;101313.69;5032675;28;20033;-80
2022/10/10 03:55:30;;;;;;;10.32;7.03;;;;;;;8.55;84.87;101310.47;5040317;28;20570;-79
2022/10/10 03:57:55;;;;;;;9.70;5.90;;;;;;;8.78;84.11;101309.94;5038589;28;20034;-80
2022/10/10 04:00:21;;;;;;;7.75;5.93;;;;;;;8.79;83.65;101309.59;5022657;28;20040;-80
2022/10/10 04:02:46;;;;;;;8.57;6.45;;;;;;;8.69;84.50;101319.25;5025509;28;20047;-80
2022/10/10 04:05:12;;;;;;;10.55;6.88;;;;;;;8.64;84.58;101310.31;5026918;28;20047;-79
2022/10/10 04:07:37;;;;;;;8.82;6.35;;;;;;;8.82;83.50;101311.66;5042758;28;20388;-80
2022/10/10 04:10:04;;;;;;;12.68;6.90;;;;;;;8.77;83.93;101311.06;5049307;28;20504;-79
2022/10/10 04:12:29;;;;;;;15.88;7.10;;;;;;;8.73;84.91;101311.81;5042159;28;20438;-79
2022/10/10 04:14:54;;;;;;;11.05;7.00;;;;;;;8.60;84.66;101307.44;5043401;28;20025;-79
2022/10/10 04:17:20;;;;;;;9.50;5.90;;;;;;;8.70;84.75;101308.91;5032507;28;20032;-79
2022/10/10 04:19:45;;;;;;;8.00;6.85;;;;;;;8.73;84.42;101306.22;5027638;28;20028;-80
2022/10/10 04:22:10;;;;;;;11.23;6.60;;;;;;;8.84;84.13;101302.94;5028479;28;20112;-79
2022/10/10 04:24:36;;;;;;;11.48;6.97;;;;;;;8.68;84.65;101298.09;5052910;28;20025;-80
2022/10/10 04:27:04;;;;;;;7.93;6.43;;;;;;;8.65;84.34;101296.00;5045363;28;20033;-79
2022/10/10 04:29:29;;;;;;;11.02;7.05;;;;;;;8.44;85.93;101299.00;5036586;28;20448;-79
2022/10/10 04:31:55;;;;;;;10.68;5.78;;;;;;;8.65;85.11;101292.41;5041957;28;20057;-79
2022/10/10 04:34:21;;;;;;;9.73;6.60;;;;;;;8.75;84.39;101292.72;5039552;28;20393;-80
2022/10/10 04:36:46;;;;;;;9.77;5.85;;;;;;;8.59;84.81;101297.44;5041730;28;20052;-80
2022/10/10 04:39:11;;;;;;;9.25;6.32;;;;;;;8.68;84.96;101295.28;5026205;28;20132;-80
2022/10/10 04:41:36;;;;;;;10.55;7.57;;;;;;;8.53;85.31;101298.84;5044562;28;20072;-79
2022/10/10 04:44:02;;;;;;;11.00;5.97;;;;;;;8.72;84.63;101290.63;5045751;28;20033;-79
2022/10/10 04:46:27;;;;;;;11.88;7.63;;;;;;;8.64;84.76;101290.78;5024062;28;20043;-80
2022/10/10 04:48:52;;;;;;;9.55;6.93;;;;;;;8.49;85.79;101295.13;5045449;28;20045;-80
2022/10/10 04:51:18;;;;;;;11.20;6.75;;;;;;;8.58;85.35;101290.25;5041233;28;20080;-80
2022/10/10 04:53:43;;;;;;;9.60;7.07;;;;;;;8.37;86.61;101290.38;5027342;28;20102;-80
2022/10/10 04:56:09;;;;;;;10.48;6.22;;;;;;;8.65;85.35;101295.22;5043951;28;20076;-79
2022/10/10 04:58:34;;;;;;;8.30;6.18;;;;;;;8.71;84.29;101294.59;5026503;28;20033;-79
2022/10/10 05:01:00;;;;;;;10.80;6.25;;;;;;;8.66;84.65;101296.81;5018023;28;20043;-80
2022/10/10 05:03:25;;;;;;;8.60;5.93;;;;;;;8.53;84.81;101290.47;5025105;28;20541;-79
2022/10/10 05:05:51;;;;;;;10.40;6.40;;;;;;;8.75;83.42;101289.13;5042289;28;20025;-79
2022/10/10 05:08:18;;;;;;;8.13;6.03;;;;;;;8.72;84.08;101290.63;5026099;28;20488;-80
2022/10/10 05:10:45;;;;;;;12.90;6.78;;;;;;;8.81;83.85;101287.69;5040584;28;20465;-79
2022/10/10 05:13:12;;;;;;;12.35;6.65;;;;;;;8.85;83.73;101282.19;5039722;28;20257;-79
2022/10/10 05:15:38;;;;;;;8.45;6.43;;;;;;;8.51;85.22;101279.66;5023985;28;20765;-79
2022/10/10 05:18:03;;;;;;;12.85;7.85;;;;;;;8.48;85.70;101276.78;5032569;28;20051;-80
2022/10/10 05:20:30;;;;;;;10.13;6.30;;;;;;;8.18;87.57;101281.81;5031722;28;20029;-79
2022/10/10 05:22:55;;;;;;;10.32;7.15;;;;;;;8.32;86.68;101279.47;5033495;28;20489;-80
2022/10/10 05:25:20;;;;;;;11.50;6.70;;;;;;;8.32;87.07;101276.66;5024666;28;20083;-79
2022/10/10 05:27:46;;;;;;;11.93;6.72;;;;;;;8.53;85.58;101279.31;5022380;28;20452;-79
2022/10/10 05:30:11;;;;;;;11.70;7.22;;;;;;;8.37;86.21;101276.44;5025198;28;20024;-79
2022/10/10 05:32:37;;;;;;;10.07;6.72;;;;;;;8.37;86.10;101279.22;5034326;28;20037;-79
2022/10/10 05:35:03;;;;;;;12.45;7.18;;;;;;;8.45;86.30;101278.28;5034286;28;20056;-80
2022/10/10 05:37:29;;;;;;;11.07;7.82;;;;;;;8.28;86.79;101275.75;5041588;28;20086;-79
2022/10/10 05:39:54;;;;;;;12.27;7.18;;;;;;;8.29;87.31;101278.19;5038933;28;20652;-79
2022/10/10 05:42:20;;;;;;;9.80;6.60;;;;;;;8.52;85.58;101274.91;5024492;28;20038;-79
2022/10/10 05:44:45;;;;;;;10.18;6.85;;;;;;;8.37;86.15;101278.41;5019926;28;20080;-79
2022/10/10 05:47:10;;;;;;;12.77;6.85;;;;;;;8.45;85.73;101266.31;5037316;28;20025;-79
2022/10/10 05:49:36;;;;;;;9.80;7.20;;;;;;;8.13;87.76;101269.75;5041625;28;20025;-79
2022/10/10 05:52:01;;;;;;;10.57;6.22;;;;;;;8.34;85.99;101265.97;5027586;28;20041;-79
2022/10/10 05:54:27;;;;;;;10.95;7.10;;;;;;;8.33;86.46;101267.97;5034298;28;20571;-79
2022/10/10 05:56:52;;;;;;;10.57;7.00;;;;;;;8.57;85.08;101263.50;5038752;28;20029;-79
2022/10/10 05:59:18;;;;;;;11.32;7.32;;;;;;;8.30;86.43;101262.28;5039576;28;20554;-79
2022/10/10 06:01:43;;;;;;;11.70;7.32;;;;;;;8.35;86.81;101265.63;5038707;28;20060;-80
2022/10/10 06:04:08;;;;;;;10.20;6.55;;;;;;;8.40;85.86;101266.56;5017755;28;20036;-79
2022/10/10 06:06:34;;;;;;;12.05;7.95;;;;;;;8.39;86.17;101264.91;5026574;28;20045;-79
2022/10/10 06:09:02;;;;;;;11.43;7.13;;;;;;;8.49;85.93;101265.25;5021642;28;20033;-79
2022/10/10 06:11:28;;;;;;;8.43;6.68;;;;;;;8.19;88.05;101266.72;5027349;28;20057;-79
2022/10/10 06:13:54;;;;;;;10.27;7.20;;;;;;;8.54;86.09;101267.81;5022751;28;20116;-74
2022/10/10 06:16:24;;;;;;;12.30;6.68;;;;;;;8.24;91.19;101272.88;5019894;28;20025;-79
2022/10/10 06:18:49;;;;;;;44.53;10.10;;;;;;;8.54;86.50;101264.22;5033589;28;20095;-76
2022/10/10 06:21:15;;;;;;;20.50;8.45;;;;;;;8.69;85.18;101274.59;5044597;28;20463;-76
2022/10/10 06:23:41;;;;;;;20.33;7.78;;;;;;;8.72;84.37;101270.28;5036658;28;20032;-77
2022/10/10 06:26:06;;;;;;;17.23;8.48;;;;;;;8.66;84.57;101274.50;5041235;28;20021;-77
2022/10/10 06:28:32;;;;;;;10.98;7.35;;;;;;;8.65;85.09;101264.50;5044953;28;20108;-77
2022/10/10 06:31:00;;;;;;;14.02;8.18;;;;;;;8.73;84.54;101269.94;5032680;28;20330;-77
2022/10/10 06:33:25;;;;;;;13.07;7.40;;;;;;;8.69;85.46;101263.44;5043580;28;20090;-77
2022/10/10 06:35:51;;;;;;;15.13;7.55;;;;;;;8.74;84.55;101271.53;5039338;28;20427;-79
2022/10/10 06:38:16;;;;;;;12.90;7.53;;;;;;;8.54;86.20;101278.16;5030863;28;20397;-78
2022/10/10 06:40:42;;;;;;;9.88;7.35;;;;;;;8.63;85.40;101286.38;5018774;28;20120;-77
2022/10/10 06:43:10;;;;;;;12.23;8.88;;;;;;;8.70;85.53;101281.00;5027417;28;20036;-77
2022/10/10 06:45:42;;;;;;;13.02;7.63;;;;;;;8.75;85.32;101272.38;5040510;28;20020;-77
2022/10/10 06:48:08;;;;;;;10.07;7.07;;;;;;;8.64;85.63;101285.19;5021355;28;20528;-77
2022/10/10 06:50:34;;;;;;;12.27;7.65;;;;;;;8.60;86.12;101282.31;5045051;28;20053;-78
2022/10/10 06:53:00;;;;;;;8.13;6.97;;;;;;;8.61;86.60;101283.94;5019091;28;20029;-77
2022/10/10 06:55:25;;;;;;;9.82;7.53;;;;;;;8.73;86.05;101281.09;5044716;28;20045;-79
2022/10/10 06:57:51;;;;;;;11.00;7.07;;;;;;;8.72;86.99;101268.31;5050007;28;20480;-77
2022/10/10 07:00:17;;;;;;;13.70;7.57;;;;;;;8.68;87.47;101275.75;5040099;28;20124;-78
2022/10/10 07:02:43;;;;;;;10.05;7.30;;;;;;;8.71;86.74;101277.84;5035091;28;20120;-79
2022/10/10 07:05:10;;;;;;;14.00;8.10;;;;;;;8.80;86.84;101290.84;5040511;28;20025;-77
2022/10/10 07:07:37;;;;;;;11.55;8.07;;;;;;;8.78;87.06;101285.59;5054396;28;20078;-78
2022/10/10 07:10:03;;;;;;;12.43;7.85;;;;;;;8.66;88.40;101296.81;5040017;28;20030;-77
2022/10/10 07:12:28;;;;;;;10.98;6.97;;;;;;;8.63;89.68;101287.19;5033195;28;20475;-78
2022/10/10 07:14:53;;;;;;;12.02;7.03;;;;;;;8.68;88.84;101297.28;5039648;28;20040;-78
2022/10/10 07:17:19;;;;;;;16.30;8.30;;;;;;;8.63;90.05;101291.97;5044300;28;20028;-77
2022/10/10 07:19:44;;;;;;;10.27;7.80;;;;;;;8.75;88.92;101295.50;5045029;28;20114;-77
2022/10/10 07:22:09;;;;;;;13.27;7.03;;;;;;;8.70;89.72;101297.75;5046636;28;20110;-78
2022/10/10 07:24:35;;;;;;;10.38;7.57;;;;;;;8.74;89.29;101304.25;5044647;28;20110;-78
2022/10/10 07:27:02;;;;;;;12.70;8.07;;;;;;;8.74;90.29;101305.03;5024836;28;20033;-77
2022/10/10 07:29:29;;;;;;;12.80;8.35;;;;;;;8.66;91.36;101308.78;5040377;28;20544;-77
2022/10/10 07:31:54;;;;;;;11.88;7.45;;;;;;;8.73;90.16;101303.44;5044151;28;20025;-77
2022/10/10 07:34:19;;;;;;;10.57;6.40;;;;;;;8.77;89.94;101297.13;5044591;28;20067;-77
2022/10/10 07:36:49;;;;;;;11.20;7.60;;;;;;;8.68;90.86;101300.88;5021723;28;20456;-79
2022/10/10 07:39:18;;;;;;;12.88;7.72;;;;;;;8.89;90.16;101303.47;5030847;28;20074;-77
2022/10/10 07:41:43;;;;;;;12.77;7.28;;;;;;;8.95;89.38;101304.03;5032047;28;20068;-77
2022/10/10 07:44:08;;;;;;;11.35;8.02;;;;;;;8.88;92.12;101303.84;5033389;28;20056;-78
2022/10/10 07:46:34;;;;;;;12.18;7.75;;;;;;;8.99;89.65;101302.16;5027076;28;20064;-78
2022/10/10 07:48:59;;;;;;;10.68;7.00;;;;;;;9.02;90.63;101307.00;5047638;28;20408;-77
2022/10/10 07:51:25;;;;;;;16.08;8.75;;;;;;;9.05;89.72;101314.69;5045865;28;20033;-77
2022/10/10 07:53:51;;;;;;;13.65;7.03;;;;;;;9.08;90.34;101319.53;5032582;28;20058;-77
2022/10/10 07:56:17;;;;;;;15.95;8.95;;;;;;;9.07;92.75;101317.13;5047918;28;20524;-77
2022/10/10 07:58:42;;;;;;;15.68;8.18;;;;;;;9.14;92.70;101318.13;5044595;28;20028;-77
2022/10/10 08:01:10;;;;;;;15.57;8.98;;;;;;;9.24;92.84;101316.00;5047267;28;20067;-78
2022/10/10 08:03:36;;;;;;;16.83;8.15;;;;;;;9.30;92.99;101314.56;5036282;28;20480;-77
2022/10/10 08:06:08;;;;;;;12.32;8.05;;;;;;;9.37;93.21;101323.13;5026523;28;20060;-78
2022/10/10 08:08:34;;;;;;;12.98;7.80;;;;;;;9.44;93.03;101320.50;5050002;28;20059;-77
2022/10/10 08:11:02;;;;;;;18.40;9.60;;;;;;;9.55;93.18;101327.19;5053278;28;20051;-77
2022/10/10 08:13:27;;;;;;;15.68;9.10;;;;;;;9.63;93.06;101327.34;5026921;28;20120;-77
2022/10/10 08:15:53;;;;;;;12.18;8.38;;;;;;;9.72;92.62;101320.44;5040928;28;20433;-77
2022/10/10 08:18:19;;;;;;;15.80;9.07;;;;;;;9.73;92.70;101321.22;5052975;28;20033;-77
2022/10/10 08:20:44;;;;;;;13.50;8.27;;;;;;;9.80;92.23;101326.19;5039515;28;20032;-76
2022/10/10 08:23:10;;;;;;;16.40;8.30;;;;;;;9.78;92.99;101323.75;5041883;28;20123;-78
2022/10/10 08:25:36;;;;;;;14.68;8.65;;;;;;;9.87;92.92;101329.97;5049695;28;20104;-78
2022/10/10 08:28:01;;;;;;;14.95;8.73;;;;;;;9.97;93.11;101321.03;5040666;28;20248;-77
2022/10/10 08:30:27;;;;;;;17.45;9.55;;;;;;;10.07;93.88;101322.44;5032733;28;20865;-77
2022/10/10 08:32:52;;;;;;;12.98;9.32;;;;;;;10.07;93.02;101316.06;5031619;28;20119;-77
2022/10/10 08:35:17;;;;;;;16.77;9.27;;;;;;;10.25;93.01;101320.06;5041657;28;20087;-77
2022/10/10 08:37:43;;;;;;;15.82;8.93;;;;;;;10.33;92.60;101327.50;5040829;28;20489;-77
2022/10/10 08:40:16;;;;;;;18.30;9.75;;;;;;;10.46;93.22;101328.16;5025490;28;20401;-77
2022/10/10 08:42:49;;;;;;;14.73;8.43;;;;;;;10.50;92.73;101333.84;5042372;28;20031;-79
2022/10/10 08:45:19;;;;;;;15.15;8.95;;;;;;;10.59;93.16;101334.44;5043387;28;20018;-77
2022/10/10 08:48:06;;;;;;;16.10;8.63;;;;;;;10.70;92.45;101335.47;5033630;28;20021;-77
2022/10/10 08:50:39;;;;;;;14.90;8.50;;;;;;;10.81;92.28;101334.88;5023403;28;20029;-78
2022/10/10 08:53:17;;;;;;;14.73;8.40;;;;;;;10.91;92.31;101331.50;5035628;28;20548;-77
2022/10/10 08:55:43;;;;;;;14.00;9.77;;;;;;;11.01;92.12;101328.09;5043261;28;20033;-78
2022/10/10 08:58:33;;;;;;;16.25;9.88;;;;;;;11.07;91.03;101326.63;5041900;28;20025;-77
2022/10/10 09:01:09;;;;;;;14.50;7.72;;;;;;;11.21;91.67;101333.69;5037904;28;20500;-77
2022/10/10 09:03:48;;;;;;;10.60;7.80;;;;;;;11.40;90.99;101322.41;5037497;28;20401;-77
2022/10/10 09:06:54;;;;;;;16.40;9.05;;;;;;;11.66;89.44;101323.66;5025315;28;20029;-77
2022/10/10 09:09:57;;;;;;;14.70;7.72;;;;;;;11.59;88.83;101325.19;5023826;28;20685;-78
2022/10/10 09:12:37;;;;;;;16.63;7.93;;;;;;;11.77;88.96;101319.88;5047341;28;20119;-78
2022/10/10 09:15:14;;;;;;;14.55;7.65;;;;;;;12.03;88.80;101321.09;5040403;28;20044;-78
2022/10/10 09:17:48;;;;;;;12.52;7.28;;;;;;;12.08;88.03;101317.16;5042472;28;20499;-77
2022/10/10 09:20:47;;;;;;;14.75;8.10;;;;;;;12.22;88.18;101317.38;5045988;28;20031;-77
2022/10/10 09:23:21;;;;;;;11.48;7.82;;;;;;;12.31;86.39;101325.53;5045077;28;20020;-77
2022/10/10 09:26:04;;;;;;;13.32;8.00;;;;;;;12.40;87.50;101323.25;5040674;28;20029;-79
2022/10/10 09:28:46;;;;;;;13.30;7.38;;;;;;;12.53;86.93;101326.66;5042173;28;20028;-79
2022/10/10 09:31:23;;;;;;;13.80;7.93;;;;;;;12.67;86.40;101340.88;5026585;28;20041;-78
2022/10/10 09:34:18;;;;;;;11.32;7.18;;;;;;;12.65;86.14;101337.66;5043242;28;20033;-77
2022/10/10 09:36:46;;;;;;;14.93;9.77;;;;;;;12.72;85.71;101340.53;5037318;28;20099;-78
2022/10/10 09:39:42;;;;;;;13.93;7.40;;;;;;;12.75;85.34;101345.38;5032538;28;20131;-77
2022/10/10 09:42:10;;;;;;;12.20;7.03;;;;;;;12.75;85.60;101345.38;4997561;28;20120;-78
2022/10/10 09:44:37;;;;;;;13.10;6.88;;;;;;;12.90;85.72;101346.41;5043447;28;20539;-77
2022/10/10 09:47:03;;;;;;;15.73;7.88;;;;;;;13.00;86.11;101334.44;5024975;28;20621;-78
2022/10/10 09:49:28;;;;;;;11.32;7.13;;;;;;;13.10;85.56;101337.78;5038877;28;20024;-78
2022/10/10 09:51:54;;;;;;;8.93;6.70;;;;;;;13.12;85.64;101347.44;5035550;28;20020;-78
2022/10/10 09:54:20;;;;;;;10.60;6.03;;;;;;;13.22;85.83;101341.13;5039594;28;20128;-78
2022/10/10 09:56:52;;;;;;;15.18;7.25;;;;;;;13.11;85.14;101340.22;5045907;28;20435;-78
2022/10/10 09:59:46;;;;;;;11.85;7.05;;;;;;;13.15;84.28;101348.66;5030667;28;20032;-78
2022/10/10 10:02:21;;;;;;;10.52;6.95;;;;;;;13.31;83.29;101342.88;5027726;28;20021;-79
2022/10/10 10:04:48;;;;;;;9.98;5.80;;;;;;;13.45;83.81;101337.38;5026656;28;20059;-78
2022/10/10 10:07:25;;;;;;;10.45;6.00;;;;;;;13.42;83.40;101335.34;5024872;28;20472;-79
2022/10/10 10:09:56;;;;;;;9.45;6.35;;;;;;;13.59;82.96;101336.69;5048979;28;20119;-77
2022/10/10 10:12:36;;;;;;;9.40;5.73;;;;;;;13.40;82.82;101346.16;5051914;28;20024;-78
2022/10/10 10:15:25;;;;;;;11.63;7.25;;;;;;;13.52;83.49;101342.28;5030011;28;20331;-78
2022/10/10 10:18:16;;;;;;;11.23;5.45;;;;;;;13.67;84.23;101355.25;5020690;28;20043;-78
2022/10/10 10:20:44;;;;;;;7.45;5.28;;;;;;;13.59;83.87;101359.19;5044546;28;20061;-78
2022/10/10 10:23:30;;;;;;;9.02;6.15;;;;;;;13.69;84.20;101363.31;5024755;28;20373;-78
2022/10/10 10:26:05;;;;;;;8.95;5.60;;;;;;;13.60;82.30;101372.09;5042589;28;20021;-78
2022/10/10 10:28:31;;;;;;;11.00;6.10;;;;;;;13.60;82.27;101370.06;5042242;28;20029;-78
2022/10/10 10:30:57;;;;;;;8.90;5.32;;;;;;;13.56;82.33;101379.69;5055566;28;20032;-79
2022/10/10 10:33:32;;;;;;;11.07;5.38;;;;;;;13.83;81.64;101374.72;5043498;28;20037;-79
2022/10/10 10:36:01;;;;;;;11.10;5.75;;;;;;;13.85;81.79;101377.94;5044657;28;20032;-78
2022/10/10 10:38:37;;;;;;;11.70;5.72;;;;;;;13.73;82.03;101387.47;5046954;28;20032;-79
2022/10/10 10:41:12;;;;;;;10.40;6.18;;;;;;;13.82;81.98;101382.31;5033460;28;20045;-79
2022/10/10 10:43:54;;;;;;;10.25;6.22;;;;;;;13.82;83.43;101384.34;5029606;28;20480;-78
2022/10/10 10:46:26;;;;;;;12.85;6.50;;;;;;;13.83;82.83;101380.34;5028594;28;20100;-79
2022/10/10 10:49:25;;;;;;;13.27;6.18;;;;;;;13.94;82.56;101383.25;5041107;28;20037;-78
2022/10/10 10:52:14;;;;;;;11.93;7.03;;;;;;;14.00;82.05;101385.31;5044531;28;20390;-79
2022/10/10 10:54:58;;;;;;;13.23;6.30;;;;;;;14.18;82.40;101384.63;5024984;28;20449;-79
2022/10/10 10:57:23;;;;;;;16.50;7.07;;;;;;;14.06;82.81;101388.56;5042040;28;21139;-79
2022/10/10 11:00:17;;;;;;;12.15;6.90;;;;;;;14.29;82.83;101393.97;5039860;28;20154;-78
2022/10/10 11:03:05;;;;;;;14.63;7.18;;;;;;;14.21;81.74;101392.31;5039861;28;20083;-78
2022/10/10 11:05:59;;;;;;;13.13;6.63;;;;;;;14.40;81.69;101386.41;5042055;28;20424;-78
2022/10/10 11:08:43;;;;;;;14.32;7.00;;;;;;;14.49;81.88;101397.34;5041614;28;20457;-78
2022/10/10 11:11:23;;;;;;;13.35;6.95;;;;;;;14.49;82.30;101382.44;5048643;28;20035;-78
2022/10/10 11:14:08;;;;;;;12.43;6.63;;;;;;;14.47;83.04;101384.84;5046320;28;20062;-78
2022/10/10 11:16:45;;;;;;;13.07;6.88;;;;;;;14.57;81.66;101389.78;5030656;28;20055;-80
2022/10/10 11:19:10;;;;;;;14.52;6.50;;;;;;;14.56;82.73;101388.94;5040944;28;20500;-78
2022/10/10 11:22:15;;;;;;;14.50;7.50;;;;;;;14.52;82.97;101393.72;5051052;28;20062;-78
2022/10/10 11:24:48;;;;;;;12.68;6.68;;;;;;;14.53;83.34;101400.19;5048393;28;20036;-79
2022/10/10 11:27:47;;;;;;;14.98;7.13;;;;;;;14.53;83.45;101406.63;5045724;28;20090;-79
2022/10/10 11:30:23;;;;;;;16.48;6.78;;;;;;;14.46;83.20;101405.75;4990837;28;20128;-78
2022/10/10 11:33:03;;;;;;;12.82;7.72;;;;;;;14.41;83.33;101402.09;5043657;28;20060;-79
2022/10/10 11:35:37;;;;;;;13.20;7.50;;;;;;;14.60;82.84;101386.97;5019092;28;20021;-81
2022/10/10 11:38:15;;;;;;;15.30;7.85;;;;;;;14.77;82.88;101410.81;5038125;28;20488;-82
2022/10/10 11:40:46;;;;;;;16.73;7.88;;;;;;;14.79;83.13;101419.69;5039204;28;20484;-81
2022/10/10 11:43:18;;;;;;;11.23;7.13;;;;;;;14.92;83.73;101416.53;5024894;28;20033;-81